createdAt,value
2018-12-05T00:00:56.256Z,0.80
2018-12-05T00:05:58.719Z,0.90
2018-12-05T00:11:02.050Z,0.90
2018-12-05T00:16:04.643Z,0.80
2018-12-05T00:21:07.854Z,0.90
2018-12-05T00:26:10.362Z,1.00
2018-12-05T00:31:12.837Z,1.10
2018-12-05T00:36:15.343Z,1.00
2018-12-05T00:41:17.830Z,1.00
2018-12-05T00:46:20.326Z,0.90
2018-12-05T00:51:22.823Z,0.80
2018-12-05T00:56:25.294Z,0.80
2018-12-05T01:01:27.902Z,0.90
2018-12-05T01:06:30.374Z,1.00
2018-12-05T01:11:32.826Z,1.10
2018-12-05T01:16:35.398Z,1.10
2018-12-05T01:21:38.081Z,1.00
2018-12-05T01:26:40.571Z,1.00
2018-12-05T01:31:43.678Z,1.10
2018-12-05T01:36:46.181Z,1.30
2018-12-05T01:41:48.666Z,1.30
2018-12-05T01:46:51.167Z,1.20
2018-12-05T01:51:53.650Z,1.30
2018-12-05T01:56:56.154Z,1.10
2018-12-05T02:01:58.638Z,1.00
2018-12-05T02:07:01.237Z,0.80
2018-12-05T02:12:03.790Z,0.70
2018-12-05T02:17:06.322Z,0.90
2018-12-05T02:22:08.814Z,0.70
2018-12-05T02:27:11.306Z,0.80
2018-12-05T02:32:13.762Z,1.30
2018-12-05T02:37:16.218Z,1.40
2018-12-05T02:42:24.364Z,1.30
2018-12-05T02:47:26.847Z,1.40
2018-12-05T02:52:29.400Z,1.50
2018-12-05T02:57:31.899Z,1.60
2018-12-05T03:02:34.375Z,1.80
2018-12-05T03:07:36.881Z,1.80
2018-12-05T03:12:39.595Z,1.60
2018-12-05T03:17:42.084Z,1.40
2018-12-05T03:22:44.671Z,1.60
2018-12-05T03:27:47.266Z,1.50
2018-12-05T03:32:49.758Z,1.40
2018-12-05T03:37:52.361Z,1.60
2018-12-05T03:42:54.950Z,1.60
2018-12-05T03:47:57.646Z,1.50
2018-12-05T03:53:00.154Z,0.90
2018-12-05T03:58:02.747Z,0.70
2018-12-05T04:03:05.313Z,0.80
2018-12-05T04:08:07.826Z,1.20
2018-12-05T04:13:10.331Z,1.10
2018-12-05T04:18:13.054Z,1.10
2018-12-05T04:23:15.826Z,0.90
2018-12-05T04:28:18.417Z,0.70
2018-12-05T04:33:20.883Z,0.70
2018-12-05T04:38:23.475Z,0.70
2018-12-05T04:43:26.203Z,0.90
2018-12-05T04:48:28.696Z,0.70
2018-12-05T04:53:31.191Z,0.70
2018-12-05T04:58:33.678Z,0.50
2018-12-05T05:03:36.995Z,0.30
2018-12-05T05:08:39.460Z,0.20
2018-12-05T05:13:41.918Z,0.40
2018-12-05T05:18:44.475Z,0.80
2018-12-05T05:23:47.281Z,0.50
2018-12-05T05:28:49.763Z,0.30
2018-12-05T05:33:52.882Z,0.30
2018-12-05T05:38:55.368Z,0.80
2018-12-05T05:43:58.578Z,0.90
2018-12-05T05:49:01.036Z,0.50
2018-12-05T05:54:03.538Z,0.40
2018-12-05T05:59:06.354Z,0.30
2018-12-05T06:04:09.584Z,0.10
2018-12-05T06:09:12.063Z,0.70
2018-12-05T06:14:14.658Z,0.90
2018-12-05T06:19:17.134Z,0.70
2018-12-05T06:24:19.851Z,0.90
2018-12-05T06:29:22.342Z,0.90
2018-12-05T06:34:24.938Z,0.70
2018-12-05T06:39:27.430Z,0.80
2018-12-05T06:44:29.909Z,0.90
2018-12-05T06:49:32.988Z,0.90
2018-12-05T06:54:35.531Z,1.00
2018-12-05T06:59:37.983Z,0.90
2018-12-05T07:04:41.022Z,0.90
2018-12-05T07:09:43.486Z,0.90
2018-12-05T07:14:46.021Z,0.90
2018-12-05T07:19:48.763Z,0.90
2018-12-05T07:24:51.397Z,1.00
2018-12-05T07:29:54.410Z,1.10
2018-12-05T07:34:56.917Z,1.00
2018-12-05T07:39:59.612Z,1.10
2018-12-05T07:45:02.383Z,1.30
2018-12-05T07:50:05.256Z,1.30
2018-12-05T07:55:07.806Z,1.40
2018-12-05T08:00:10.299Z,1.50
2018-12-05T08:05:13.794Z,1.60
2018-12-05T08:10:16.255Z,1.80
2018-12-05T08:15:18.798Z,1.70
2018-12-05T08:20:21.603Z,1.80
2018-12-05T08:25:24.089Z,1.90
2018-12-05T08:30:26.582Z,2.10
2018-12-05T08:35:29.273Z,2.10
2018-12-05T08:40:32.746Z,2.30
2018-12-05T08:45:35.289Z,2.30
2018-12-05T08:50:37.889Z,2.40
2018-12-05T08:55:40.823Z,2.50
2018-12-05T09:00:43.383Z,2.50
2018-12-05T09:05:46.178Z,2.50
2018-12-05T09:10:48.682Z,2.50
2018-12-05T09:15:51.167Z,2.50
2018-12-05T09:20:53.769Z,2.70
2018-12-05T09:25:56.256Z,2.90
2018-12-05T09:30:58.727Z,3.80
2018-12-05T09:36:01.238Z,3.90
2018-12-05T09:41:04.019Z,4.20
2018-12-05T09:46:06.468Z,4.60
2018-12-05T09:51:08.980Z,4.30
2018-12-05T09:56:11.450Z,3.70
2018-12-05T10:01:14.522Z,4.00
2018-12-05T10:06:16.978Z,4.50
2018-12-05T10:11:19.511Z,4.50
2018-12-05T10:16:22.120Z,4.20
2018-12-05T10:21:25.222Z,3.90
2018-12-05T10:26:27.674Z,3.90
2018-12-05T10:31:30.869Z,4.10
2018-12-05T10:36:33.472Z,4.10
2018-12-05T10:41:35.957Z,4.20
2018-12-05T10:46:38.449Z,4.30
2018-12-05T10:51:40.910Z,4.40
2018-12-05T10:56:44.008Z,4.70
2018-12-05T11:01:52.750Z,4.90
2018-12-05T11:07:12.931Z,4.90
2018-12-05T11:12:21.114Z,5.00
2018-12-05T11:17:29.259Z,5.20
2018-12-05T11:22:37.372Z,5.30
2018-12-05T11:27:39.938Z,5.30
2018-12-05T11:32:42.409Z,5.40
2018-12-05T11:37:44.955Z,5.60
2018-12-05T11:42:47.494Z,5.80
2018-12-05T11:47:49.990Z,5.80
2018-12-05T11:52:52.490Z,5.90
2018-12-05T11:57:54.979Z,5.90
2018-12-05T12:02:57.625Z,5.80
2018-12-05T12:08:00.158Z,5.90
2018-12-05T12:13:04.846Z,6.00
2018-12-05T12:18:07.507Z,6.10
2018-12-05T12:23:09.958Z,6.10
2018-12-05T12:28:13.060Z,6.20
2018-12-05T12:33:15.606Z,6.20
2018-12-05T12:38:18.094Z,6.30
2018-12-05T12:43:21.259Z,6.30
2018-12-05T12:48:23.750Z,6.50
2018-12-05T12:53:26.298Z,6.50
2018-12-05T12:58:28.882Z,6.40
2018-12-05T13:03:31.478Z,6.60
2018-12-05T13:08:33.981Z,6.60
2018-12-05T13:13:36.431Z,6.50
2018-12-05T13:18:38.931Z,6.50
2018-12-05T13:23:41.451Z,6.40
2018-12-05T13:28:44.023Z,6.40
2018-12-05T13:33:46.596Z,6.30
2018-12-05T13:38:49.063Z,6.40
2018-12-05T13:43:51.576Z,6.40
2018-12-05T13:48:54.072Z,6.40
2018-12-05T13:53:56.526Z,6.30
2018-12-05T13:58:59.078Z,6.30
2018-12-05T14:04:01.598Z,6.20
2018-12-05T14:09:05.475Z,6.10
2018-12-05T14:14:07.938Z,6.10
2018-12-05T14:19:10.414Z,6.00
2018-12-05T14:24:13.227Z,6.00
2018-12-05T14:29:16.436Z,6.00
2018-12-05T14:34:19.586Z,6.00
2018-12-05T14:39:22.081Z,6.00
2018-12-05T14:44:24.545Z,6.00
2018-12-05T14:49:27.175Z,5.90
2018-12-05T14:54:29.710Z,5.90
2018-12-05T14:59:32.210Z,5.90
2018-12-05T15:04:34.658Z,6.00
2018-12-05T15:09:37.180Z,6.00
2018-12-05T15:14:39.687Z,6.00
2018-12-05T15:19:42.226Z,6.10
2018-12-05T15:24:44.719Z,6.00
2018-12-05T15:29:47.222Z,6.00
2018-12-05T15:34:50.187Z,6.00
2018-12-05T15:39:52.760Z,6.10
2018-12-05T15:44:55.255Z,6.10
2018-12-05T15:49:58.254Z,6.10
2018-12-05T15:55:01.273Z,6.10
2018-12-05T16:00:06.045Z,6.20
2018-12-05T16:05:08.670Z,6.10
2018-12-05T16:10:11.409Z,6.10
2018-12-05T16:15:13.911Z,6.20
2018-12-05T16:20:16.362Z,6.20
2018-12-05T16:25:18.882Z,6.20
2018-12-05T16:30:21.535Z,6.20
2018-12-05T16:35:23.979Z,6.30
2018-12-05T16:40:26.890Z,6.40
2018-12-05T16:45:29.374Z,6.30
2018-12-05T16:50:31.846Z,6.30
2018-12-05T16:55:34.470Z,6.30
2018-12-05T17:00:36.963Z,6.30
2018-12-05T17:05:39.452Z,6.20
2018-12-05T17:10:42.398Z,6.30
2018-12-05T17:15:44.902Z,6.30
2018-12-05T17:20:47.441Z,6.30
2018-12-05T17:25:50.046Z,6.40
2018-12-05T17:30:52.527Z,6.40
2018-12-05T17:35:55.063Z,6.30
2018-12-05T17:40:57.530Z,6.30
2018-12-05T17:46:00.026Z,6.20
2018-12-05T17:51:02.519Z,6.30
2018-12-05T17:56:04.974Z,6.30
2018-12-05T18:01:07.578Z,6.30
2018-12-05T18:06:10.063Z,6.20
2018-12-05T18:11:12.546Z,6.20
2018-12-05T18:16:15.007Z,6.30
2018-12-05T18:21:17.462Z,6.30
2018-12-05T18:26:19.935Z,6.40
2018-12-05T18:31:22.418Z,6.40
2018-12-05T18:36:24.971Z,6.40
2018-12-05T18:41:27.446Z,6.40
2018-12-05T18:46:30.027Z,6.40
2018-12-05T18:51:32.541Z,6.50
2018-12-05T18:56:35.060Z,6.50
2018-12-05T19:01:37.554Z,6.50
2018-12-05T19:06:40.037Z,6.60
2018-12-05T19:11:42.745Z,6.50
2018-12-05T19:16:45.186Z,6.40
2018-12-05T19:21:47.679Z,6.30
2018-12-05T19:26:50.165Z,6.30
2018-12-05T19:31:52.871Z,6.20
2018-12-05T19:36:55.370Z,6.20
2018-12-05T19:41:57.838Z,6.30
2018-12-05T19:47:00.339Z,6.20
2018-12-05T19:52:02.927Z,6.20
2018-12-05T19:57:05.617Z,6.20
2018-12-05T20:02:08.742Z,6.20
2018-12-05T20:07:11.396Z,6.20
2018-12-05T20:12:13.892Z,6.30
2018-12-05T20:17:16.394Z,6.30
2018-12-05T20:22:18.980Z,6.30
2018-12-05T20:27:21.519Z,6.40
2018-12-05T20:32:24.122Z,6.40
2018-12-05T20:37:27.127Z,6.30
2018-12-05T20:42:30.363Z,6.40
2018-12-05T20:47:32.862Z,6.40
2018-12-05T20:52:35.432Z,6.40
2018-12-05T20:57:38.059Z,6.50
2018-12-05T21:02:40.606Z,6.60
2018-12-05T21:07:43.207Z,6.60
2018-12-05T21:12:46.536Z,6.60
2018-12-05T21:17:49.122Z,6.70
2018-12-05T21:22:51.606Z,6.70
2018-12-05T21:27:54.154Z,6.80
2018-12-05T21:32:56.704Z,6.80
2018-12-05T21:37:59.186Z,6.80
2018-12-05T21:43:01.690Z,6.90
2018-12-05T21:48:05.199Z,7.00
2018-12-05T21:53:07.843Z,7.00
2018-12-05T21:58:10.398Z,7.10
2018-12-05T22:03:12.882Z,7.10
2018-12-05T22:08:16.194Z,7.20
2018-12-05T22:13:18.669Z,7.20
2018-12-05T22:18:21.590Z,7.30
2018-12-05T22:23:24.088Z,7.30
2018-12-05T22:28:26.581Z,7.40
2018-12-05T22:33:29.185Z,7.40
2018-12-05T22:38:31.655Z,7.40
2018-12-05T22:43:34.162Z,7.40
2018-12-05T22:48:36.650Z,7.50
2018-12-05T22:53:39.246Z,7.50
2018-12-05T22:58:41.938Z,7.50
2018-12-05T23:03:45.063Z,7.50
2018-12-05T23:08:48.170Z,7.50
2018-12-05T23:13:51.314Z,7.40
2018-12-05T23:18:53.802Z,7.40
2018-12-05T23:23:56.283Z,7.30
2018-12-05T23:28:58.759Z,7.30
2018-12-05T23:34:01.911Z,7.30
2018-12-05T23:39:06.398Z,7.30
2018-12-05T23:44:36.948Z,7.30
2018-12-05T23:49:39.541Z,7.30
2018-12-05T23:54:42.042Z,7.30
2018-12-05T23:59:44.517Z,7.30
